createdAt,value
2019-05-11T00:00:23.626Z,98646.72
2019-05-11T00:02:53.259Z,98649.50
2019-05-11T00:05:22.855Z,98648.64
2019-05-11T00:07:52.450Z,98659.67
2019-05-11T00:10:23.696Z,98658.46
2019-05-11T00:12:53.585Z,98650.34
2019-05-11T00:15:23.179Z,98655.62
2019-05-11T00:17:52.783Z,98661.05
2019-05-11T00:20:22.402Z,98658.97
2019-05-11T00:22:52.022Z,98656.27
2019-05-11T00:25:21.664Z,98652.91
2019-05-11T00:27:51.303Z,98655.20
2019-05-11T00:30:21.011Z,98653.52
2019-05-11T00:32:50.672Z,98654.77
2019-05-11T00:35:20.290Z,98653.05
2019-05-11T00:37:50.081Z,98657.16
2019-05-11T00:40:19.794Z,98656.73
2019-05-11T00:42:49.415Z,98661.55
2019-05-11T00:45:19.112Z,98659.84
2019-05-11T00:47:48.712Z,98659.77
2019-05-11T00:50:18.533Z,98656.12
2019-05-11T00:52:48.159Z,98660.02
2019-05-11T00:55:17.802Z,98662.62
2019-05-11T00:57:47.395Z,98664.12
2019-05-11T01:00:17.200Z,98657.41
2019-05-11T01:02:46.810Z,98659.91
2019-05-11T01:05:16.469Z,98664.80
2019-05-11T01:07:46.040Z,98670.30
2019-05-11T01:10:25.640Z,98667.44
2019-05-11T01:12:47.224Z,98667.72
2019-05-11T01:15:17.446Z,98666.61
2019-05-11T01:17:47.060Z,98662.08
2019-05-11T01:20:18.641Z,98662.08
2019-05-11T01:22:48.113Z,98668.63
2019-05-11T01:25:17.806Z,98667.63
2019-05-11T01:27:47.505Z,98662.17
2019-05-11T01:30:17.610Z,98670.13
2019-05-11T01:32:47.172Z,98669.76
2019-05-11T01:35:16.988Z,98678.35
2019-05-11T01:37:46.674Z,98685.95
2019-05-11T01:40:16.519Z,98679.56
2019-05-11T01:42:46.127Z,98676.03
2019-05-11T01:45:15.701Z,98675.18
2019-05-11T01:47:45.333Z,98678.21
2019-05-11T01:50:15.052Z,98678.56
2019-05-11T01:52:44.699Z,98686.70
2019-05-11T01:55:14.326Z,98684.30
2019-05-11T01:57:43.994Z,98675.56
2019-05-11T02:00:13.791Z,98681.05
2019-05-11T02:02:43.413Z,98678.22
2019-05-11T02:05:29.117Z,98683.36
2019-05-11T02:07:59.849Z,98681.32
2019-05-11T02:10:29.683Z,98681.59
2019-05-11T02:12:59.748Z,98682.01
2019-05-11T02:15:29.478Z,98688.26
2019-05-11T02:17:59.176Z,98680.64
2019-05-11T02:20:28.917Z,98682.89
2019-05-11T02:22:58.450Z,98688.52
2019-05-11T02:25:28.067Z,98688.56
2019-05-11T02:27:57.632Z,98690.65
2019-05-11T02:30:27.290Z,98690.82
2019-05-11T02:32:56.866Z,98695.41
2019-05-11T02:35:26.514Z,98696.23
2019-05-11T02:37:56.107Z,98699.64
2019-05-11T02:40:25.809Z,98709.12
2019-05-11T02:42:55.427Z,98705.19
2019-05-11T02:45:38.566Z,98708.05
2019-05-11T02:48:08.393Z,98710.63
2019-05-11T02:50:39.513Z,98706.03
2019-05-11T02:53:10.355Z,98709.48
2019-05-11T02:55:40.195Z,98710.89
2019-05-11T02:58:09.939Z,98711.93
2019-05-11T03:00:41.683Z,98712.41
2019-05-11T03:03:11.666Z,98716.89
2019-05-11T03:05:41.251Z,98712.09
2019-05-11T03:08:10.891Z,98718.17
2019-05-11T03:10:40.477Z,98718.12
2019-05-11T03:13:10.242Z,98728.59
2019-05-11T03:15:39.873Z,98735.22
2019-05-11T03:18:09.473Z,98732.38
2019-05-11T03:20:39.089Z,98734.64
2019-05-11T03:23:08.656Z,98746.22
2019-05-11T03:25:38.275Z,98744.50
2019-05-11T03:28:07.854Z,98740.25
2019-05-11T03:30:37.544Z,98745.84
2019-05-11T03:33:07.151Z,98743.27
2019-05-11T03:35:36.746Z,98751.63
2019-05-11T03:38:06.453Z,98745.75
2019-05-11T03:40:36.014Z,98752.67
2019-05-11T03:43:05.710Z,98755.67
2019-05-11T03:45:35.350Z,98756.42
2019-05-11T03:48:04.948Z,98757.91
2019-05-11T03:50:34.553Z,98758.58
2019-05-11T03:53:04.217Z,98765.72
2019-05-11T03:55:33.805Z,98766.54
2019-05-11T03:58:03.374Z,98762.47
2019-05-11T04:00:33.024Z,98768.78
2019-05-11T04:03:02.646Z,98770.45
2019-05-11T04:05:32.289Z,98769.25
2019-05-11T04:08:01.873Z,98780.29
2019-05-11T04:10:31.459Z,98778.06
2019-05-11T04:13:01.087Z,98775.65
2019-05-11T04:15:30.674Z,98778.89
2019-05-11T04:18:00.291Z,98784.19
2019-05-11T04:20:30.069Z,98775.25
2019-05-11T04:22:59.661Z,98789.50
2019-05-11T04:25:29.268Z,98784.02
2019-05-11T04:27:58.849Z,98789.44
2019-05-11T04:30:28.454Z,98789.19
2019-05-11T04:32:58.031Z,98786.92
2019-05-11T04:35:27.613Z,98787.38
2019-05-11T04:37:57.266Z,98794.36
2019-05-11T04:40:26.919Z,98788.22
2019-05-11T04:42:56.622Z,98794.52
2019-05-11T04:45:26.188Z,98787.50
2019-05-11T04:47:55.754Z,98789.92
2019-05-11T04:50:25.467Z,98796.13
2019-05-11T04:52:55.094Z,98799.60
2019-05-11T04:55:24.709Z,98798.06
2019-05-11T04:57:54.904Z,98796.02
2019-05-11T05:00:24.703Z,98797.91
2019-05-11T05:02:54.336Z,98800.84
2019-05-11T05:05:23.927Z,98801.98
2019-05-11T05:08:07.422Z,98805.30
2019-05-11T05:10:24.942Z,98806.10
2019-05-11T05:13:09.344Z,98806.70
2019-05-11T05:15:25.884Z,98813.16
2019-05-11T05:17:55.484Z,98818.16
2019-05-11T05:20:25.064Z,98822.06
2019-05-11T05:22:54.699Z,98825.67
2019-05-11T05:25:24.309Z,98833.72
2019-05-11T05:27:54.002Z,98833.98
2019-05-11T05:30:23.636Z,98828.84
2019-05-11T05:32:53.279Z,98829.98
2019-05-11T05:35:22.906Z,98837.34
2019-05-11T05:37:52.540Z,98845.00
2019-05-11T05:40:22.170Z,98854.75
2019-05-11T05:42:51.753Z,98845.79
2019-05-11T05:45:21.334Z,98846.59
2019-05-11T05:47:50.982Z,98850.85
2019-05-11T05:50:20.761Z,98857.48
2019-05-11T05:52:50.369Z,98808.73
2019-05-11T05:55:19.971Z,98861.38
2019-05-11T05:57:49.621Z,98866.42
2019-05-11T06:00:19.577Z,98866.23
2019-05-11T06:02:49.167Z,98869.41
2019-05-11T06:05:18.750Z,98866.26
2019-05-11T06:07:48.366Z,98874.16
2019-05-11T06:10:18.170Z,98878.44
2019-05-11T06:12:47.834Z,98874.42
2019-05-11T06:15:17.658Z,98882.73
2019-05-11T06:17:47.240Z,98893.25
2019-05-11T06:20:17.719Z,98884.00
2019-05-11T06:22:47.695Z,98891.80
2019-05-11T06:25:17.383Z,98899.66
2019-05-11T06:27:46.954Z,98892.98
2019-05-11T06:30:16.646Z,98902.53
2019-05-11T06:32:46.257Z,98897.69
2019-05-11T06:35:16.035Z,98899.53
2019-05-11T06:37:45.700Z,98906.33
2019-05-11T06:40:15.434Z,98901.48
2019-05-11T06:42:45.056Z,98896.87
2019-05-11T06:45:14.732Z,98893.16
2019-05-11T06:47:44.359Z,98893.11
2019-05-11T06:50:14.226Z,98896.64
2019-05-11T06:52:43.822Z,98906.27
2019-05-11T06:55:13.542Z,98904.86
2019-05-11T06:57:43.149Z,98912.25
2019-05-11T07:00:13.423Z,98905.92
2019-05-11T07:02:43.230Z,98899.97
2019-05-11T07:05:12.966Z,98904.27
2019-05-11T07:07:47.585Z,98901.77
2019-05-11T07:10:14.077Z,98901.02
2019-05-11T07:12:56.907Z,98896.53
2019-05-11T07:15:20.375Z,98896.16
2019-05-11T07:17:49.968Z,98902.91
2019-05-11T07:20:19.553Z,98896.65
2019-05-11T07:22:49.146Z,98890.60
2019-05-11T07:25:18.717Z,98888.37
2019-05-11T07:27:48.320Z,98885.41
2019-05-11T07:30:17.918Z,98895.52
2019-05-11T07:32:48.191Z,98900.32
2019-05-11T07:35:18.770Z,98904.88
2019-05-11T07:37:48.617Z,98906.84
2019-05-11T07:40:18.919Z,98910.37
2019-05-11T07:42:48.813Z,98907.58
2019-05-11T07:45:18.826Z,98916.26
2019-05-11T07:47:48.750Z,98916.75
2019-05-11T07:50:18.511Z,98909.16
2019-05-11T07:52:48.468Z,98907.85
2019-05-11T07:55:19.140Z,98907.06
2019-05-11T07:57:48.907Z,98899.03
2019-05-11T08:00:18.978Z,98903.52
2019-05-11T08:02:48.655Z,98892.98
2019-05-11T08:05:18.298Z,98903.82
2019-05-11T08:07:48.317Z,98896.61
2019-05-11T08:10:18.687Z,98899.03
2019-05-11T08:12:48.523Z,98897.03
2019-05-11T08:15:18.694Z,98906.16
2019-05-11T08:17:49.001Z,98902.16
2019-05-11T08:20:18.987Z,98898.78
2019-05-11T08:22:48.564Z,98891.72
2019-05-11T08:25:18.450Z,98894.69
2019-05-11T08:27:48.667Z,98890.91
2019-05-11T08:30:18.964Z,98894.75
2019-05-11T08:32:49.458Z,98898.03
2019-05-11T08:35:19.613Z,98900.50
2019-05-11T08:37:49.318Z,98892.39
2019-05-11T08:40:20.038Z,98901.47
2019-05-11T08:42:49.761Z,98894.15
2019-05-11T08:45:24.016Z,98897.08
2019-05-11T08:47:50.912Z,98898.44
2019-05-11T08:50:20.749Z,98907.96
2019-05-11T08:52:50.423Z,98911.64
2019-05-11T08:55:20.450Z,98905.06
2019-05-11T08:57:50.202Z,98902.67
2019-05-11T09:00:20.175Z,98892.22
2019-05-11T09:02:50.982Z,98901.63
2019-05-11T09:05:20.797Z,98909.41
2019-05-11T09:07:50.540Z,98899.86
2019-05-11T09:10:20.179Z,98893.81
2019-05-11T09:12:49.809Z,98899.97
2019-05-11T09:15:32.397Z,98900.26
2019-05-11T09:17:50.912Z,98898.34
2019-05-11T09:20:20.673Z,98896.79
2019-05-11T09:22:50.294Z,98900.31
2019-05-11T09:25:19.908Z,98893.69
2019-05-11T09:27:49.558Z,98903.55
2019-05-11T09:30:19.405Z,98896.59
2019-05-11T09:32:49.213Z,98892.76
2019-05-11T09:35:19.196Z,98886.66
2019-05-11T09:37:48.839Z,98895.48
2019-05-11T09:40:18.972Z,98893.55
2019-05-11T09:42:48.754Z,98898.80
2019-05-11T09:45:18.962Z,98894.91
2019-05-11T09:47:48.700Z,98881.54
2019-05-11T09:50:18.456Z,98903.75
2019-05-11T09:52:49.049Z,98889.03
2019-05-11T09:55:19.306Z,98894.15
2019-05-11T09:57:49.168Z,98847.11
2019-05-11T10:00:19.027Z,98879.25
2019-05-11T10:02:48.973Z,98886.80
2019-05-11T10:05:19.138Z,98873.89
2019-05-11T10:07:48.841Z,98866.78
2019-05-11T10:10:19.003Z,98885.73
2019-05-11T10:12:52.345Z,98873.25
2019-05-11T10:15:20.289Z,98873.30
2019-05-11T10:17:50.137Z,98866.39
2019-05-11T10:20:19.759Z,98878.52
2019-05-11T10:22:49.436Z,98872.89
2019-05-11T10:25:19.166Z,98860.61
2019-05-11T10:27:49.190Z,98851.79
2019-05-11T10:30:19.901Z,98862.38
2019-05-11T10:32:49.614Z,98846.39
2019-05-11T10:35:19.290Z,98843.16
2019-05-11T10:37:48.985Z,98843.42
2019-05-11T10:40:19.166Z,98848.57
2019-05-11T10:42:48.923Z,98843.95
2019-05-11T10:45:18.690Z,98847.56
2019-05-11T10:47:49.089Z,98844.56
2019-05-11T10:50:19.142Z,98841.52
2019-05-11T10:52:48.748Z,98851.57
2019-05-11T10:55:19.276Z,98854.41
2019-05-11T10:57:49.310Z,98847.86
2019-05-11T11:00:19.601Z,98851.66
2019-05-11T11:02:49.222Z,98860.41
2019-05-11T11:05:19.160Z,98860.04
2019-05-11T11:07:48.920Z,98864.73
2019-05-11T11:10:18.811Z,98854.20
2019-05-11T11:12:49.121Z,98845.76
2019-05-11T11:15:19.132Z,98847.13
2019-05-11T11:17:48.859Z,98848.58
2019-05-11T11:20:18.880Z,98852.21
2019-05-11T11:22:48.712Z,98857.41
2019-05-11T11:25:19.888Z,98849.98
2019-05-11T11:27:49.491Z,98856.09
2019-05-11T11:30:20.232Z,98839.06
2019-05-11T11:32:50.143Z,98851.58
2019-05-11T11:35:20.269Z,98843.72
2019-05-11T11:37:49.984Z,98833.85
2019-05-11T11:40:19.710Z,98822.88
2019-05-11T11:42:49.352Z,98821.98
2019-05-11T11:45:19.074Z,98831.54
2019-05-11T11:47:49.475Z,98821.91
2019-05-11T11:50:19.431Z,98818.81
2019-05-11T11:52:49.058Z,98820.50
2019-05-11T11:55:18.906Z,98823.83
2019-05-11T11:57:50.304Z,98813.52
2019-05-11T12:00:20.438Z,98813.52
2019-05-11T12:02:50.099Z,98824.39
2019-05-11T12:05:19.790Z,98806.71
2019-05-11T12:07:49.432Z,98806.71
2019-05-11T12:10:19.307Z,98811.48
2019-05-11T12:12:48.887Z,98811.48
2019-05-11T12:15:18.635Z,98805.17
2019-05-11T12:17:48.531Z,98804.37
2019-05-11T12:20:18.503Z,98799.63
2019-05-11T12:22:48.193Z,98794.89
2019-05-11T12:25:18.611Z,98793.70
2019-05-11T12:27:49.163Z,98790.73
2019-05-11T12:30:19.250Z,98797.50
2019-05-11T12:32:50.186Z,98804.98
2019-05-11T12:35:20.472Z,98787.45
2019-05-11T12:37:50.130Z,98787.50
2019-05-11T12:40:20.066Z,98783.13
2019-05-11T12:42:49.660Z,98784.92
2019-05-11T12:45:19.460Z,98781.80
2019-05-11T12:47:49.094Z,98783.11
2019-05-11T12:50:18.908Z,98773.44
2019-05-11T12:52:48.692Z,98771.53
2019-05-11T12:55:19.958Z,98767.94
2019-05-11T12:57:49.601Z,98762.98
2019-05-11T13:00:20.344Z,98762.31
2019-05-11T13:02:49.982Z,98756.08
2019-05-11T13:05:19.740Z,98758.65
2019-05-11T13:07:49.362Z,98755.16
2019-05-11T13:10:19.284Z,98755.63
2019-05-11T13:12:49.438Z,98752.45
2019-05-11T13:15:20.217Z,98751.89
2019-05-11T13:17:49.896Z,98752.61
2019-05-11T13:20:19.609Z,98759.98
2019-05-11T13:22:49.220Z,98755.69
2019-05-11T13:25:18.855Z,98753.55
2019-05-11T13:27:49.236Z,98747.78
2019-05-11T13:30:19.362Z,98754.90
2019-05-11T13:32:49.349Z,98743.16
2019-05-11T13:35:20.291Z,98744.18
2019-05-11T13:37:49.906Z,98741.82
2019-05-11T13:40:19.701Z,98747.79
2019-05-11T13:42:49.386Z,98744.34
2019-05-11T13:45:19.112Z,98751.16
2019-05-11T13:47:54.673Z,98746.41
2019-05-11T13:50:21.021Z,98750.64
2019-05-11T13:52:50.622Z,98749.50
2019-05-11T13:55:20.279Z,98744.85
2019-05-11T13:57:49.877Z,98746.84
2019-05-11T14:00:19.615Z,98747.91
2019-05-11T14:02:49.704Z,98736.36
2019-05-11T14:05:19.425Z,98749.77
2019-05-11T14:07:49.069Z,98742.39
2019-05-11T14:10:18.784Z,98741.87
2019-05-11T14:12:48.383Z,98747.06
2019-05-11T14:15:18.775Z,98743.69
2019-05-11T14:18:03.529Z,98747.52
2019-05-11T14:20:20.554Z,98738.73
2019-05-11T14:22:50.167Z,98741.91
2019-05-11T14:25:19.840Z,98735.63
2019-05-11T14:27:49.508Z,98739.58
2019-05-11T14:30:19.332Z,98731.76
2019-05-11T14:32:51.098Z,98742.78
2019-05-11T14:35:20.693Z,98738.88
2019-05-11T14:37:50.301Z,98735.19
2019-05-11T14:40:19.923Z,98737.09
2019-05-11T14:42:49.558Z,98727.95
2019-05-11T14:45:19.287Z,98738.19
2019-05-11T14:47:48.900Z,98731.45
2019-05-11T14:50:19.013Z,98736.33
2019-05-11T14:52:49.234Z,98715.42
2019-05-11T14:55:18.975Z,98735.09
2019-05-11T14:57:48.929Z,98739.35
2019-05-11T15:00:18.931Z,98739.35
2019-05-11T15:02:49.844Z,98752.25
2019-05-11T15:05:20.950Z,98749.09
2019-05-11T15:07:52.897Z,98752.45
2019-05-11T15:10:23.723Z,98749.45
2019-05-11T15:12:53.319Z,98754.39
2019-05-11T15:15:23.681Z,98754.08
2019-05-11T15:17:53.317Z,98741.47
2019-05-11T15:20:22.931Z,98749.88
2019-05-11T15:22:52.579Z,98743.37
2019-05-11T15:25:22.402Z,98750.55
2019-05-11T15:27:52.016Z,98747.17
2019-05-11T15:30:22.855Z,98743.74
2019-05-11T15:32:52.467Z,98745.95
2019-05-11T15:35:22.194Z,98741.82
2019-05-11T15:37:51.935Z,98748.09
2019-05-11T15:40:23.054Z,98748.80
2019-05-11T15:42:52.832Z,98754.19
2019-05-11T15:45:22.534Z,98744.19
2019-05-11T15:47:52.285Z,98758.80
2019-05-11T15:50:22.504Z,98759.21
2019-05-11T15:52:52.131Z,98756.02
2019-05-11T15:55:21.929Z,98762.48
2019-05-11T15:57:51.533Z,98759.66
2019-05-11T16:00:22.992Z,98756.81
2019-05-11T16:02:52.603Z,98762.70
2019-05-11T16:05:22.308Z,98756.03
2019-05-11T16:07:51.953Z,98756.67
2019-05-11T16:10:21.563Z,98762.34
2019-05-11T16:12:51.243Z,98762.22
2019-05-11T16:15:20.940Z,98765.86
2019-05-11T16:17:50.975Z,98778.95
2019-05-11T16:20:20.675Z,98764.18
2019-05-11T16:22:50.283Z,98778.99
2019-05-11T16:25:20.314Z,98755.52
2019-05-11T16:27:50.174Z,98778.36
2019-05-11T16:30:21.754Z,98771.97
2019-05-11T16:32:51.586Z,98776.73
2019-05-11T16:35:21.400Z,98775.20
2019-05-11T16:37:50.985Z,98776.59
2019-05-11T16:40:21.261Z,98772.95
2019-05-11T16:42:51.072Z,98782.27
2019-05-11T16:45:23.837Z,98782.78
2019-05-11T16:47:52.173Z,98782.47
2019-05-11T16:50:21.793Z,98779.52
2019-05-11T16:52:51.411Z,98790.24
2019-05-11T16:55:21.011Z,98780.47
2019-05-11T16:57:50.631Z,98785.45
2019-05-11T17:00:20.515Z,98792.28
2019-05-11T17:02:50.111Z,98790.09
2019-05-11T17:05:26.667Z,98793.48
2019-05-11T17:07:51.031Z,98789.70
2019-05-11T17:10:20.940Z,98797.95
2019-05-11T17:12:50.568Z,98797.58
2019-05-11T17:15:20.254Z,98799.89
2019-05-11T17:17:49.935Z,98810.47
2019-05-11T17:20:19.634Z,98808.30
2019-05-11T17:22:49.393Z,98808.28
2019-05-11T17:25:19.640Z,98814.07
2019-05-11T17:27:49.514Z,98823.92
2019-05-11T17:30:19.935Z,98828.09
2019-05-11T17:32:50.227Z,98828.89
2019-05-11T17:35:20.072Z,98837.67
2019-05-11T17:37:49.707Z,98839.23
2019-05-11T17:40:23.368Z,98841.17
2019-05-11T17:42:53.853Z,98843.39
2019-05-11T17:45:23.903Z,98849.05
2019-05-11T17:47:54.379Z,98849.05
2019-05-11T17:50:28.768Z,98848.01
2019-05-11T17:52:59.028Z,98843.81
2019-05-11T17:55:30.003Z,98853.34
2019-05-11T17:58:01.247Z,98848.02
2019-05-11T18:00:32.328Z,98856.25
2019-05-11T18:03:01.976Z,98873.31
2019-05-11T18:05:31.670Z,98873.31
2019-05-11T18:08:01.441Z,98878.03
2019-05-11T18:10:31.087Z,98880.63
2019-05-11T18:13:04.014Z,98897.13
2019-05-11T18:15:32.620Z,98896.66
2019-05-11T18:18:02.359Z,98899.05
2019-05-11T18:20:32.340Z,98895.11
2019-05-11T18:23:02.040Z,98900.20
2019-05-11T18:25:31.767Z,98900.09
2019-05-11T18:28:01.525Z,98903.89
2019-05-11T18:30:31.259Z,98906.17
2019-05-11T18:33:00.958Z,98911.52
2019-05-11T18:35:30.579Z,98915.62
2019-05-11T18:38:00.261Z,98916.20
2019-05-11T18:40:29.894Z,98921.17
2019-05-11T18:42:59.573Z,98919.08
2019-05-11T18:45:29.285Z,98920.91
2019-05-11T18:47:58.948Z,98924.84
2019-05-11T18:50:31.049Z,98926.42
2019-05-11T18:53:00.344Z,98926.63
2019-05-11T18:55:30.295Z,98929.44
2019-05-11T18:58:00.092Z,98937.69
2019-05-11T19:00:29.790Z,98944.86
2019-05-11T19:02:59.436Z,98959.15
2019-05-11T19:05:29.323Z,98962.27
2019-05-11T19:07:59.083Z,98965.34
2019-05-11T19:10:28.861Z,98976.85
2019-05-11T19:12:59.059Z,98975.19
2019-05-11T19:15:29.211Z,98972.53
2019-05-11T19:17:58.910Z,98965.08
2019-05-11T19:20:28.570Z,98968.03
2019-05-11T19:22:58.987Z,98967.56
2019-05-11T19:25:28.898Z,98968.69
2019-05-11T19:27:59.028Z,98969.64
2019-05-11T19:30:28.912Z,98971.28
2019-05-11T19:32:59.091Z,98973.58
2019-05-11T19:35:28.911Z,98968.55
2019-05-11T19:37:58.636Z,98971.66
2019-05-11T19:40:28.387Z,98971.11
2019-05-11T19:42:59.040Z,98973.80
2019-05-11T19:45:29.642Z,98972.73
2019-05-11T19:47:59.309Z,98975.17
2019-05-11T19:50:28.901Z,98975.54
2019-05-11T19:52:58.703Z,98971.02
2019-05-11T19:55:28.737Z,98970.52
2019-05-11T19:57:58.594Z,98974.63
2019-05-11T20:00:28.564Z,98967.42
2019-05-11T20:02:58.714Z,98845.91
2019-05-11T20:05:29.050Z,98969.18
2019-05-11T20:07:59.071Z,98973.89
2019-05-11T20:10:28.813Z,98977.25
2019-05-11T20:12:58.967Z,98979.16
2019-05-11T20:15:29.708Z,98986.20
2019-05-11T20:18:07.939Z,98982.82
2019-05-11T20:20:38.259Z,98984.11
2019-05-11T20:23:07.996Z,98941.63
2019-05-11T20:25:38.091Z,98973.66
2019-05-11T20:28:08.000Z,98975.34
2019-05-11T20:30:37.715Z,98977.92
2019-05-11T20:33:08.711Z,98968.70
2019-05-11T20:35:38.501Z,98973.34
2019-05-11T20:38:08.620Z,98968.39
2019-05-11T20:40:38.411Z,98972.39
2019-05-11T20:43:08.116Z,98973.87
2019-05-11T20:45:40.222Z,98971.03
2019-05-11T20:48:12.367Z,98971.73
2019-05-11T20:50:48.175Z,98974.55
2019-05-11T20:53:18.209Z,98976.08
2019-05-11T20:55:49.977Z,98976.94
2019-05-11T20:58:19.827Z,98976.33
2019-05-11T21:00:50.300Z,98979.30
2019-05-11T21:03:22.830Z,98974.16
2019-05-11T21:05:59.050Z,98974.38
2019-05-11T21:08:29.264Z,98968.22
2019-05-11T21:10:59.446Z,98969.22
2019-05-11T21:13:29.558Z,98968.14
2019-05-11T21:16:00.270Z,98973.59
2019-05-11T21:18:30.010Z,98980.33
2019-05-11T21:20:59.694Z,98974.50
2019-05-11T21:23:29.544Z,98987.07
2019-05-11T21:25:59.743Z,98979.09
2019-05-11T21:28:30.695Z,98979.52
2019-05-11T21:31:00.867Z,98978.97
2019-05-11T21:33:30.518Z,98979.76
2019-05-11T21:36:00.718Z,98984.70
2019-05-11T21:38:31.817Z,98987.13
2019-05-11T21:41:01.629Z,98988.37
2019-05-11T21:43:31.308Z,98988.77
2019-05-11T21:46:01.401Z,98994.41
2019-05-11T21:48:31.110Z,99001.25
2019-05-11T21:51:00.765Z,99006.16
2019-05-11T21:53:30.384Z,99004.23
2019-05-11T21:56:00.033Z,99005.63
2019-05-11T21:58:29.630Z,99006.12
2019-05-11T22:00:59.341Z,99008.38
2019-05-11T22:03:28.967Z,99006.45
2019-05-11T22:05:58.570Z,99006.98
2019-05-11T22:08:28.464Z,99013.20
2019-05-11T22:11:00.027Z,99011.23
2019-05-11T22:13:29.495Z,99015.64
2019-05-11T22:15:59.105Z,99018.11
2019-05-11T22:18:31.362Z,99021.29
2019-05-11T22:21:00.199Z,99021.68
2019-05-11T22:23:29.839Z,99031.94
2019-05-11T22:25:59.419Z,99033.28
2019-05-11T22:28:29.066Z,99048.66
2019-05-11T22:30:58.659Z,99052.09
2019-05-11T22:33:28.496Z,99063.73
2019-05-11T22:35:58.845Z,99063.11
2019-05-11T22:38:30.253Z,99060.44
2019-05-11T22:40:59.985Z,99073.57
2019-05-11T22:43:29.658Z,99069.09
2019-05-11T22:45:59.301Z,99074.92
2019-05-11T22:48:28.907Z,99059.50
2019-05-11T22:50:58.726Z,99055.73
2019-05-11T22:53:43.343Z,99043.73
2019-05-11T22:55:59.719Z,99053.97
2019-05-11T22:58:29.425Z,99044.64
2019-05-11T23:00:59.757Z,99050.76
2019-05-11T23:03:29.497Z,99048.48
2019-05-11T23:05:59.129Z,99050.20
2019-05-11T23:08:28.823Z,99052.83
2019-05-11T23:10:58.543Z,99048.85
2019-05-11T23:13:28.168Z,99038.84
2019-05-11T23:15:58.417Z,99043.28
2019-05-11T23:18:28.768Z,99047.39
2019-05-11T23:20:58.495Z,99035.72
2019-05-11T23:23:28.995Z,99041.27
2019-05-11T23:25:58.597Z,99043.91
2019-05-11T23:28:28.942Z,99037.86
2019-05-11T23:30:58.637Z,99039.42
2019-05-11T23:33:28.236Z,99036.58
2019-05-11T23:35:58.760Z,99035.02
2019-05-11T23:38:28.508Z,99028.78
2019-05-11T23:40:58.704Z,99028.89
2019-05-11T23:43:30.103Z,99029.34
2019-05-11T23:45:59.774Z,99028.11
2019-05-11T23:48:29.514Z,99023.77
2019-05-11T23:50:59.133Z,99030.72
2019-05-11T23:53:28.719Z,99020.64
2019-05-11T23:55:58.368Z,99017.56
2019-05-11T23:58:28.334Z,99022.09
